createdAt,value
2023-03-23T15:59:08.618Z,82.78
2023-03-23T16:01:38.414Z,85.20
2023-03-23T16:04:07.683Z,86.83
2023-03-23T16:06:36.282Z,89.14
2023-03-23T16:09:06.069Z,91.04
2023-03-23T16:11:34.168Z,90.67
2023-03-23T16:14:01.697Z,90.82
2023-03-23T16:16:32.237Z,89.33
2023-03-23T16:18:59.412Z,89.42
2023-03-23T16:21:26.523Z,90.16
2023-03-23T16:23:54.765Z,90.86
2023-03-23T16:26:23.433Z,90.09
2023-03-23T16:28:53.212Z,90.64
2023-03-23T16:31:22.551Z,89.98
2023-03-23T16:33:49.593Z,91.24
2023-03-23T16:36:16.702Z,89.39
2023-03-23T16:38:48.964Z,92.44
2023-03-23T16:41:17.441Z,92.44
2023-03-23T16:43:46.115Z,91.88
2023-03-23T16:46:14.300Z,92.64
2023-03-23T16:48:41.496Z,93.06
2023-03-23T16:51:08.551Z,91.01
2023-03-23T16:53:37.146Z,92.04
2023-03-23T16:56:06.127Z,91.84
2023-03-23T16:58:33.275Z,92.38
2023-03-23T17:01:07.894Z,91.70
2023-03-23T17:03:35.776Z,92.71
2023-03-23T17:06:05.108Z,91.08
2023-03-23T17:08:33.087Z,90.92
2023-03-23T17:11:06.184Z,91.41
2023-03-23T17:13:33.260Z,91.71
2023-03-23T17:16:01.910Z,92.08
2023-03-23T17:18:30.914Z,92.53
2023-03-23T17:20:58.933Z,92.50
2023-03-23T17:23:26.200Z,92.82
2023-03-23T17:25:54.237Z,92.63
2023-03-23T17:28:21.672Z,94.54
2023-03-23T17:30:53.125Z,94.45
2023-03-23T17:33:20.349Z,97.37
2023-03-23T17:35:52.143Z,98.00
2023-03-23T17:38:19.930Z,99.04
2023-03-23T17:40:47.288Z,100.00
2023-03-23T17:43:14.654Z,100.00
2023-03-23T17:45:43.563Z,100.00
2023-03-23T17:48:12.265Z,100.00
2023-03-23T17:50:39.390Z,100.00
2023-03-23T17:53:07.808Z,100.00
2023-03-23T17:55:34.894Z,100.00
2023-03-23T17:58:02.449Z,100.00
2023-03-23T18:00:29.528Z,100.00
2023-03-23T18:02:58.294Z,100.00
2023-03-23T18:05:29.285Z,100.00
2023-03-23T18:07:58.543Z,100.00
2023-03-23T18:10:30.567Z,100.00
2023-03-23T18:13:12.201Z,100.00
2023-03-23T18:16:20.417Z,100.00
2023-03-23T18:19:05.975Z,100.00
2023-03-23T18:21:38.088Z,100.00
2023-03-23T18:25:16.171Z,100.00
2023-03-23T18:28:31.204Z,100.00
2023-03-23T18:31:12.120Z,100.00
2023-03-23T18:33:46.926Z,100.00
2023-03-23T18:36:42.665Z,100.00
2023-03-23T18:39:34.231Z,100.00
2023-03-23T18:42:01.457Z,100.00
2023-03-23T18:44:30.478Z,100.00
2023-03-23T18:46:57.516Z,100.00
2023-03-23T18:49:39.545Z,100.00
2023-03-23T18:52:06.995Z,100.00
2023-03-23T18:54:35.124Z,100.00
2023-03-23T18:57:19.930Z,100.00
2023-03-23T18:59:56.605Z,100.00
2023-03-23T19:02:24.438Z,100.00
2023-03-23T19:05:05.657Z,100.00
2023-03-23T19:07:33.264Z,100.00
2023-03-23T19:10:12.872Z,100.00
2023-03-23T19:12:55.425Z,100.00
2023-03-23T19:15:27.642Z,100.00
2023-03-23T19:18:10.799Z,100.00
2023-03-23T19:21:15.558Z,100.00
2023-03-23T19:24:26.375Z,100.00
2023-03-23T19:27:06.823Z,100.00
2023-03-23T19:29:36.142Z,100.00
2023-03-23T19:32:19.690Z,100.00
2023-03-23T19:35:03.452Z,100.00
2023-03-23T19:37:40.182Z,100.00
2023-03-23T19:40:36.676Z,100.00
2023-03-23T19:43:11.039Z,100.00
2023-03-23T19:45:46.155Z,100.00
2023-03-23T19:48:17.606Z,100.00
2023-03-23T19:50:58.176Z,100.00
2023-03-23T19:53:27.245Z,100.00
2023-03-23T19:55:59.911Z,100.00
2023-03-23T19:58:39.738Z,100.00
2023-03-23T20:01:19.438Z,100.00
2023-03-23T20:03:53.535Z,100.00
2023-03-23T20:06:41.106Z,100.00
2023-03-23T20:09:41.264Z,100.00
2023-03-23T20:12:14.645Z,100.00
2023-03-23T20:14:47.921Z,100.00
2023-03-23T20:17:58.080Z,100.00
2023-03-23T20:20:29.724Z,100.00
2023-03-23T20:23:19.254Z,100.00
2023-03-23T20:25:47.124Z,100.00
2023-03-23T20:28:15.085Z,100.00
2023-03-23T20:31:16.814Z,100.00
2023-03-23T20:34:21.850Z,100.00
2023-03-23T20:36:50.621Z,100.00
2023-03-23T20:39:54.893Z,100.00
2023-03-23T20:42:22.453Z,100.00
2023-03-23T20:44:58.402Z,100.00
2023-03-23T20:47:25.908Z,100.00
2023-03-23T20:50:02.508Z,100.00
2023-03-23T20:52:33.906Z,100.00
2023-03-23T20:55:01.122Z,100.00
2023-03-23T20:57:28.933Z,100.00
2023-03-23T20:59:56.321Z,100.00
2023-03-23T21:02:26.090Z,100.00
2023-03-23T21:04:54.139Z,100.00
2023-03-23T21:07:23.333Z,100.00
2023-03-23T21:09:51.852Z,100.00
2023-03-23T21:12:18.801Z,100.00
2023-03-23T21:14:46.221Z,100.00
2023-03-23T21:17:13.251Z,100.00
2023-03-23T21:19:40.881Z,100.00
2023-03-23T21:22:09.764Z,100.00
2023-03-23T21:24:40.434Z,100.00
2023-03-23T21:27:08.903Z,100.00
2023-03-23T21:29:35.958Z,100.00
2023-03-23T21:32:08.302Z,100.00
2023-03-23T21:34:36.873Z,100.00
2023-03-23T21:37:04.085Z,100.00
2023-03-23T21:39:31.684Z,100.00
2023-03-23T21:41:59.769Z,100.00
2023-03-23T21:44:28.212Z,100.00
2023-03-23T21:46:55.317Z,100.00
2023-03-23T21:49:22.431Z,100.00
2023-03-23T21:51:50.152Z,100.00
2023-03-23T21:54:17.678Z,100.00
2023-03-23T21:56:44.767Z,100.00
2023-03-23T21:59:12.043Z,100.00
2023-03-23T22:01:40.667Z,100.00
2023-03-23T22:04:08.401Z,100.00
2023-03-23T22:06:35.931Z,100.00
2023-03-23T22:09:05.625Z,100.00
2023-03-23T22:11:33.427Z,100.00
2023-03-23T22:14:01.105Z,100.00
2023-03-23T22:16:28.597Z,100.00
2023-03-23T22:19:00.231Z,100.00
2023-03-23T22:21:28.463Z,100.00
2023-03-23T22:23:57.605Z,100.00
2023-03-23T22:26:27.310Z,100.00
2023-03-23T22:28:54.852Z,100.00
2023-03-23T22:31:24.328Z,100.00
2023-03-23T22:33:55.072Z,100.00
2023-03-23T22:36:25.018Z,100.00
2023-03-23T22:38:52.244Z,100.00
2023-03-23T22:41:22.524Z,100.00
2023-03-23T22:43:50.013Z,100.00
2023-03-23T22:46:18.114Z,100.00
2023-03-23T22:48:45.432Z,100.00
2023-03-23T22:51:15.174Z,100.00
2023-03-23T22:53:44.741Z,100.00
2023-03-23T22:56:12.501Z,100.00
2023-03-23T22:58:40.306Z,100.00
2023-03-23T23:01:09.615Z,100.00
2023-03-23T23:03:38.125Z,100.00
2023-03-23T23:06:06.167Z,100.00
2023-03-23T23:08:33.520Z,100.00
2023-03-23T23:11:03.867Z,100.00
2023-03-23T23:13:33.092Z,100.00
2023-03-23T23:16:01.602Z,100.00
2023-03-23T23:18:30.919Z,100.00
2023-03-23T23:21:00.062Z,100.00
2023-03-23T23:23:28.493Z,100.00
2023-03-23T23:25:57.306Z,100.00
2023-03-23T23:28:26.733Z,100.00
2023-03-23T23:30:54.862Z,100.00
2023-03-23T23:33:22.619Z,100.00
2023-03-23T23:35:50.183Z,100.00
2023-03-23T23:38:17.355Z,100.00
2023-03-23T23:40:46.354Z,100.00
2023-03-23T23:43:14.893Z,100.00
2023-03-23T23:45:43.830Z,100.00
2023-03-23T23:48:12.651Z,100.00
2023-03-23T23:50:39.866Z,100.00
2023-03-23T23:53:10.010Z,100.00
2023-03-23T23:55:38.731Z,100.00
2023-03-23T23:58:06.091Z,100.00
